sensor_id;sensor_type;location;lat;lon;timestamp;P1;durP1;ratioP1;P2;durP2;ratioP2
20589;SDS011;10453;50.810;12.540;2023-05-25T00:00:29;17.70;;;11.57;;
20589;SDS011;10453;50.810;12.540;2023-05-25T00:04:47;22.55;;;11.23;;
20589;SDS011;10453;50.810;12.540;2023-05-25T00:09:04;21.52;;;12.38;;
20589;SDS011;10453;50.810;12.540;2023-05-25T00:13:22;26.55;;;12.25;;
20589;SDS011;10453;50.810;12.540;2023-05-25T00:17:39;20.27;;;11.77;;
20589;SDS011;10453;50.810;12.540;2023-05-25T00:21:57;26.70;;;11.50;;
20589;SDS011;10453;50.810;12.540;2023-05-25T00:26:17;21.20;;;11.85;;
20589;SDS011;10453;50.810;12.540;2023-05-25T00:30:34;24.55;;;12.52;;
20589;SDS011;10453;50.810;12.540;2023-05-25T00:34:52;19.77;;;11.27;;
20589;SDS011;10453;50.810;12.540;2023-05-25T00:39:10;27.20;;;10.70;;
20589;SDS011;10453;50.810;12.540;2023-05-25T00:43:28;21.55;;;11.77;;
20589;SDS011;10453;50.810;12.540;2023-05-25T00:47:45;22.27;;;11.63;;
20589;SDS011;10453;50.810;12.540;2023-05-25T00:52:08;21.65;;;10.20;;
20589;SDS011;10453;50.810;12.540;2023-05-25T00:56:31;24.70;;;12.32;;
20589;SDS011;10453;50.810;12.540;2023-05-25T01:00:51;21.25;;;11.02;;
20589;SDS011;10453;50.810;12.540;2023-05-25T01:05:13;19.23;;;11.68;;
20589;SDS011;10453;50.810;12.540;2023-05-25T01:09:33;23.58;;;12.15;;
20589;SDS011;10453;50.810;12.540;2023-05-25T01:13:54;26.38;;;11.88;;
20589;SDS011;10453;50.810;12.540;2023-05-25T01:18:14;19.83;;;12.40;;
20589;SDS011;10453;50.810;12.540;2023-05-25T01:22:34;17.98;;;11.15;;
20589;SDS011;10453;50.810;12.540;2023-05-25T01:27:06;26.08;;;13.05;;
20589;SDS011;10453;50.810;12.540;2023-05-25T01:31:50;21.20;;;12.20;;
20589;SDS011;10453;50.810;12.540;2023-05-25T01:36:09;21.60;;;12.45;;
20589;SDS011;10453;50.810;12.540;2023-05-25T01:40:27;23.10;;;12.63;;
20589;SDS011;10453;50.810;12.540;2023-05-25T01:44:44;19.47;;;11.20;;
20589;SDS011;10453;50.810;12.540;2023-05-25T01:53:36;22.73;;;11.05;;
20589;SDS011;10453;50.810;12.540;2023-05-25T01:57:59;23.25;;;11.60;;
20589;SDS011;10453;50.810;12.540;2023-05-25T02:06:36;26.02;;;12.45;;
20589;SDS011;10453;50.810;12.540;2023-05-25T02:10:54;18.98;;;11.70;;
20589;SDS011;10453;50.810;12.540;2023-05-25T02:15:11;24.05;;;13.55;;
20589;SDS011;10453;50.810;12.540;2023-05-25T02:19:29;18.23;;;11.90;;
20589;SDS011;10453;50.810;12.540;2023-05-25T02:23:46;18.80;;;10.95;;
20589;SDS011;10453;50.810;12.540;2023-05-25T02:28:05;29.75;;;12.13;;
20589;SDS011;10453;50.810;12.540;2023-05-25T02:32:22;27.23;;;12.98;;
20589;SDS011;10453;50.810;12.540;2023-05-25T02:36:41;23.75;;;11.85;;
20589;SDS011;10453;50.810;12.540;2023-05-25T02:41:00;25.92;;;12.38;;
20589;SDS011;10453;50.810;12.540;2023-05-25T02:45:18;20.48;;;12.15;;
20589;SDS011;10453;50.810;12.540;2023-05-25T02:49:35;26.27;;;12.38;;
20589;SDS011;10453;50.810;12.540;2023-05-25T02:53:52;24.48;;;12.43;;
20589;SDS011;10453;50.810;12.540;2023-05-25T02:58:10;21.67;;;11.70;;
20589;SDS011;10453;50.810;12.540;2023-05-25T03:02:27;22.50;;;11.40;;
20589;SDS011;10453;50.810;12.540;2023-05-25T03:06:46;20.98;;;11.75;;
20589;SDS011;10453;50.810;12.540;2023-05-25T03:11:04;19.97;;;11.47;;
20589;SDS011;10453;50.810;12.540;2023-05-25T03:15:21;19.75;;;11.73;;
20589;SDS011;10453;50.810;12.540;2023-05-25T03:19:39;23.38;;;12.05;;
20589;SDS011;10453;50.810;12.540;2023-05-25T03:23:56;24.95;;;12.48;;
20589;SDS011;10453;50.810;12.540;2023-05-25T03:28:15;25.35;;;12.23;;
20589;SDS011;10453;50.810;12.540;2023-05-25T03:32:32;23.23;;;13.15;;
20589;SDS011;10453;50.810;12.540;2023-05-25T03:36:50;22.27;;;13.15;;
20589;SDS011;10453;50.810;12.540;2023-05-25T03:41:09;19.85;;;12.70;;
20589;SDS011;10453;50.810;12.540;2023-05-25T03:45:26;21.33;;;12.18;;
20589;SDS011;10453;50.810;12.540;2023-05-25T03:49:43;25.88;;;14.05;;
20589;SDS011;10453;50.810;12.540;2023-05-25T03:54:01;19.63;;;12.55;;
20589;SDS011;10453;50.810;12.540;2023-05-25T03:58:18;23.25;;;12.07;;
20589;SDS011;10453;50.810;12.540;2023-05-25T04:02:36;21.67;;;12.70;;
20589;SDS011;10453;50.810;12.540;2023-05-25T04:06:53;24.57;;;13.17;;
20589;SDS011;10453;50.810;12.540;2023-05-25T04:11:11;24.73;;;14.15;;
20589;SDS011;10453;50.810;12.540;2023-05-25T04:15:28;25.45;;;13.05;;
20589;SDS011;10453;50.810;12.540;2023-05-25T04:19:46;25.90;;;14.07;;
20589;SDS011;10453;50.810;12.540;2023-05-25T04:24:03;23.33;;;13.32;;
20589;SDS011;10453;50.810;12.540;2023-05-25T04:32:39;26.35;;;13.32;;
20589;SDS011;10453;50.810;12.540;2023-05-25T04:37:00;22.55;;;14.88;;
20589;SDS011;10453;50.810;12.540;2023-05-25T04:41:21;25.27;;;13.93;;
20589;SDS011;10453;50.810;12.540;2023-05-25T04:45:38;25.55;;;13.38;;
20589;SDS011;10453;50.810;12.540;2023-05-25T04:49:56;28.77;;;14.15;;
20589;SDS011;10453;50.810;12.540;2023-05-25T04:54:13;26.40;;;13.55;;
20589;SDS011;10453;50.810;12.540;2023-05-25T04:58:31;26.57;;;14.07;;
20589;SDS011;10453;50.810;12.540;2023-05-25T05:02:49;21.60;;;12.33;;
20589;SDS011;10453;50.810;12.540;2023-05-25T05:07:07;20.85;;;13.30;;
20589;SDS011;10453;50.810;12.540;2023-05-25T05:11:24;22.95;;;13.02;;
20589;SDS011;10453;50.810;12.540;2023-05-25T05:15:43;26.00;;;13.48;;
20589;SDS011;10453;50.810;12.540;2023-05-25T05:20:00;23.23;;;13.80;;
20589;SDS011;10453;50.810;12.540;2023-05-25T05:24:18;22.55;;;13.38;;
20589;SDS011;10453;50.810;12.540;2023-05-25T05:28:36;26.90;;;14.00;;
20589;SDS011;10453;50.810;12.540;2023-05-25T05:32:53;25.60;;;15.52;;
20589;SDS011;10453;50.810;12.540;2023-05-25T05:37:11;23.43;;;13.60;;
20589;SDS011;10453;50.810;12.540;2023-05-25T05:41:28;26.50;;;14.27;;
20589;SDS011;10453;50.810;12.540;2023-05-25T05:45:46;23.05;;;13.75;;
20589;SDS011;10453;50.810;12.540;2023-05-25T05:50:03;22.65;;;13.48;;
20589;SDS011;10453;50.810;12.540;2023-05-25T05:54:22;23.20;;;14.55;;
20589;SDS011;10453;50.810;12.540;2023-05-25T05:58:39;21.73;;;14.20;;
20589;SDS011;10453;50.810;12.540;2023-05-25T06:02:57;25.95;;;14.45;;
20589;SDS011;10453;50.810;12.540;2023-05-25T06:07:17;23.15;;;13.88;;
20589;SDS011;10453;50.810;12.540;2023-05-25T06:11:34;22.52;;;14.60;;
20589;SDS011;10453;50.810;12.540;2023-05-25T06:15:53;24.02;;;14.68;;
20589;SDS011;10453;50.810;12.540;2023-05-25T06:20:10;26.70;;;13.02;;
20589;SDS011;10453;50.810;12.540;2023-05-25T06:24:28;22.90;;;13.70;;
20589;SDS011;10453;50.810;12.540;2023-05-25T06:33:05;21.95;;;12.80;;
20589;SDS011;10453;50.810;12.540;2023-05-25T06:37:27;22.85;;;12.70;;
20589;SDS011;10453;50.810;12.540;2023-05-25T06:41:50;26.80;;;12.85;;
20589;SDS011;10453;50.810;12.540;2023-05-25T06:46:09;23.40;;;12.35;;
20589;SDS011;10453;50.810;12.540;2023-05-25T06:50:27;24.35;;;12.70;;
20589;SDS011;10453;50.810;12.540;2023-05-25T06:54:44;24.15;;;11.98;;
20589;SDS011;10453;50.810;12.540;2023-05-25T06:59:02;15.55;;;10.23;;
20589;SDS011;10453;50.810;12.540;2023-05-25T07:03:20;20.30;;;10.45;;
20589;SDS011;10453;50.810;12.540;2023-05-25T07:07:37;16.65;;;11.52;;
20589;SDS011;10453;50.810;12.540;2023-05-25T07:11:55;19.98;;;10.73;;
20589;SDS011;10453;50.810;12.540;2023-05-25T07:16:12;21.20;;;10.55;;
20589;SDS011;10453;50.810;12.540;2023-05-25T07:20:30;20.58;;;10.13;;
20589;SDS011;10453;50.810;12.540;2023-05-25T07:24:52;20.60;;;9.88;;
20589;SDS011;10453;50.810;12.540;2023-05-25T07:29:11;22.70;;;10.02;;
20589;SDS011;10453;50.810;12.540;2023-05-25T07:33:28;18.25;;;10.10;;
20589;SDS011;10453;50.810;12.540;2023-05-25T07:37:54;19.80;;;9.65;;
20589;SDS011;10453;50.810;12.540;2023-05-25T07:42:16;17.60;;;8.25;;
20589;SDS011;10453;50.810;12.540;2023-05-25T07:46:37;13.75;;;6.70;;
20589;SDS011;10453;50.810;12.540;2023-05-25T07:50:54;11.68;;;6.85;;
20589;SDS011;10453;50.810;12.540;2023-05-25T07:55:12;15.68;;;7.25;;
20589;SDS011;10453;50.810;12.540;2023-05-25T07:59:29;11.98;;;5.32;;
20589;SDS011;10453;50.810;12.540;2023-05-25T08:03:46;13.70;;;7.43;;
20589;SDS011;10453;50.810;12.540;2023-05-25T08:08:06;13.65;;;6.93;;
20589;SDS011;10453;50.810;12.540;2023-05-25T08:12:23;17.10;;;7.35;;
20589;SDS011;10453;50.810;12.540;2023-05-25T08:17:01;11.60;;;5.10;;
20589;SDS011;10453;50.810;12.540;2023-05-25T08:21:21;12.70;;;5.30;;
20589;SDS011;10453;50.810;12.540;2023-05-25T08:25:38;13.63;;;7.05;;
20589;SDS011;10453;50.810;12.540;2023-05-25T08:29:55;12.35;;;7.25;;
20589;SDS011;10453;50.810;12.540;2023-05-25T08:34:13;13.98;;;6.85;;
20589;SDS011;10453;50.810;12.540;2023-05-25T08:38:31;14.77;;;7.43;;
20589;SDS011;10453;50.810;12.540;2023-05-25T08:42:49;10.35;;;6.07;;
20589;SDS011;10453;50.810;12.540;2023-05-25T08:47:06;12.43;;;5.07;;
20589;SDS011;10453;50.810;12.540;2023-05-25T08:51:24;14.27;;;6.80;;
20589;SDS011;10453;50.810;12.540;2023-05-25T08:55:46;15.20;;;6.28;;
20589;SDS011;10453;50.810;12.540;2023-05-25T09:00:08;10.80;;;6.38;;
20589;SDS011;10453;50.810;12.540;2023-05-25T09:04:29;12.43;;;5.78;;
20589;SDS011;10453;50.810;12.540;2023-05-25T09:08:50;11.48;;;5.90;;
20589;SDS011;10453;50.810;12.540;2023-05-25T09:13:08;11.93;;;5.97;;
20589;SDS011;10453;50.810;12.540;2023-05-25T09:17:38;12.45;;;6.50;;
20589;SDS011;10453;50.810;12.540;2023-05-25T09:26:31;11.05;;;5.03;;
20589;SDS011;10453;50.810;12.540;2023-05-25T09:30:49;12.60;;;7.00;;
20589;SDS011;10453;50.810;12.540;2023-05-25T09:35:08;10.57;;;6.32;;
20589;SDS011;10453;50.810;12.540;2023-05-25T09:39:31;13.77;;;6.45;;
20589;SDS011;10453;50.810;12.540;2023-05-25T09:43:49;11.02;;;6.20;;
20589;SDS011;10453;50.810;12.540;2023-05-25T09:48:27;12.80;;;6.90;;
20589;SDS011;10453;50.810;12.540;2023-05-25T09:52:47;11.15;;;6.07;;
20589;SDS011;10453;50.810;12.540;2023-05-25T09:57:05;12.25;;;6.93;;
20589;SDS011;10453;50.810;12.540;2023-05-25T10:01:23;14.07;;;8.10;;
20589;SDS011;10453;50.810;12.540;2023-05-25T10:05:41;18.45;;;8.73;;
20589;SDS011;10453;50.810;12.540;2023-05-25T10:09:59;14.15;;;7.97;;
20589;SDS011;10453;50.810;12.540;2023-05-25T10:14:25;16.20;;;7.50;;
20589;SDS011;10453;50.810;12.540;2023-05-25T10:18:47;12.75;;;6.80;;
20589;SDS011;10453;50.810;12.540;2023-05-25T10:23:19;13.68;;;6.95;;
20589;SDS011;10453;50.810;12.540;2023-05-25T10:27:50;12.85;;;8.50;;
20589;SDS011;10453;50.810;12.540;2023-05-25T10:32:13;15.85;;;9.65;;
20589;SDS011;10453;50.810;12.540;2023-05-25T10:36:32;14.80;;;8.40;;
20589;SDS011;10453;50.810;12.540;2023-05-25T10:40:50;16.00;;;8.55;;
20589;SDS011;10453;50.810;12.540;2023-05-25T10:45:09;12.75;;;7.47;;
20589;SDS011;10453;50.810;12.540;2023-05-25T10:49:31;12.38;;;6.80;;
20589;SDS011;10453;50.810;12.540;2023-05-25T10:53:59;11.93;;;6.47;;
20589;SDS011;10453;50.810;12.540;2023-05-25T10:58:20;17.33;;;6.78;;
20589;SDS011;10453;50.810;12.540;2023-05-25T11:02:51;13.88;;;6.85;;
20589;SDS011;10453;50.810;12.540;2023-05-25T11:07:13;13.77;;;7.90;;
20589;SDS011;10453;50.810;12.540;2023-05-25T11:16:14;15.07;;;8.43;;
20589;SDS011;10453;50.810;12.540;2023-05-25T11:20:33;17.80;;;8.10;;
20589;SDS011;10453;50.810;12.540;2023-05-25T11:24:51;13.40;;;7.13;;
20589;SDS011;10453;50.810;12.540;2023-05-25T11:29:13;15.45;;;9.13;;
20589;SDS011;10453;50.810;12.540;2023-05-25T11:33:32;15.93;;;8.00;;
20589;SDS011;10453;50.810;12.540;2023-05-25T11:37:49;14.63;;;7.38;;
20589;SDS011;10453;50.810;12.540;2023-05-25T11:42:09;14.82;;;6.95;;
20589;SDS011;10453;50.810;12.540;2023-05-25T11:46:28;13.55;;;7.00;;
20589;SDS011;10453;50.810;12.540;2023-05-25T11:51:02;13.68;;;8.40;;
20589;SDS011;10453;50.810;12.540;2023-05-25T11:55:20;15.50;;;7.38;;
20589;SDS011;10453;50.810;12.540;2023-05-25T11:59:38;12.57;;;8.32;;
20589;SDS011;10453;50.810;12.540;2023-05-25T12:03:57;13.93;;;8.10;;
20589;SDS011;10453;50.810;12.540;2023-05-25T12:08:31;15.00;;;7.95;;
20589;SDS011;10453;50.810;12.540;2023-05-25T12:12:50;14.93;;;7.55;;
20589;SDS011;10453;50.810;12.540;2023-05-25T12:17:08;11.55;;;7.10;;
20589;SDS011;10453;50.810;12.540;2023-05-25T12:21:26;12.07;;;7.95;;
20589;SDS011;10453;50.810;12.540;2023-05-25T12:25:44;14.33;;;8.13;;
20589;SDS011;10453;50.810;12.540;2023-05-25T12:30:07;13.23;;;7.55;;
20589;SDS011;10453;50.810;12.540;2023-05-25T12:34:26;11.27;;;6.88;;
20589;SDS011;10453;50.810;12.540;2023-05-25T12:43:14;12.27;;;7.10;;
20589;SDS011;10453;50.810;12.540;2023-05-25T12:47:33;12.10;;;7.32;;
20589;SDS011;10453;50.810;12.540;2023-05-25T12:51:51;15.43;;;6.53;;
20589;SDS011;10453;50.810;12.540;2023-05-25T12:56:08;15.47;;;7.33;;
20589;SDS011;10453;50.810;12.540;2023-05-25T13:00:32;12.48;;;6.75;;
20589;SDS011;10453;50.810;12.540;2023-05-25T13:04:54;14.75;;;7.03;;
20589;SDS011;10453;50.810;12.540;2023-05-25T13:09:12;12.43;;;7.15;;
20589;SDS011;10453;50.810;12.540;2023-05-25T13:17:48;20.92;;;9.00;;
20589;SDS011;10453;50.810;12.540;2023-05-25T13:22:06;16.13;;;7.70;;
20589;SDS011;10453;50.810;12.540;2023-05-25T13:26:24;13.07;;;7.18;;
20589;SDS011;10453;50.810;12.540;2023-05-25T13:30:42;13.93;;;7.32;;
20589;SDS011;10453;50.810;12.540;2023-05-25T13:34:59;13.87;;;8.23;;
20589;SDS011;10453;50.810;12.540;2023-05-25T13:39:17;15.77;;;7.90;;
20589;SDS011;10453;50.810;12.540;2023-05-25T13:43:39;11.25;;;7.38;;
20589;SDS011;10453;50.810;12.540;2023-05-25T13:47:56;14.05;;;7.50;;
20589;SDS011;10453;50.810;12.540;2023-05-25T13:52:15;18.85;;;7.25;;
20589;SDS011;10453;50.810;12.540;2023-05-25T13:56:32;13.77;;;7.23;;
20589;SDS011;10453;50.810;12.540;2023-05-25T14:00:50;10.00;;;6.25;;
20589;SDS011;10453;50.810;12.540;2023-05-25T14:05:07;12.20;;;6.88;;
20589;SDS011;10453;50.810;12.540;2023-05-25T14:09:25;13.65;;;6.97;;
20589;SDS011;10453;50.810;12.540;2023-05-25T14:13:44;11.57;;;5.95;;
20589;SDS011;10453;50.810;12.540;2023-05-25T14:18:01;12.95;;;6.68;;
20589;SDS011;10453;50.810;12.540;2023-05-25T14:22:19;11.02;;;6.40;;
20589;SDS011;10453;50.810;12.540;2023-05-25T14:26:37;14.27;;;6.70;;
20589;SDS011;10453;50.810;12.540;2023-05-25T14:30:54;13.13;;;6.03;;
20589;SDS011;10453;50.810;12.540;2023-05-25T14:35:11;17.15;;;7.43;;
20589;SDS011;10453;50.810;12.540;2023-05-25T14:39:29;10.13;;;5.73;;
20589;SDS011;10453;50.810;12.540;2023-05-25T14:43:47;11.15;;;5.20;;
20589;SDS011;10453;50.810;12.540;2023-05-25T14:48:04;12.40;;;6.20;;
20589;SDS011;10453;50.810;12.540;2023-05-25T14:52:32;13.98;;;6.25;;
20589;SDS011;10453;50.810;12.540;2023-05-25T14:56:49;12.38;;;6.25;;
20589;SDS011;10453;50.810;12.540;2023-05-25T15:01:07;11.15;;;5.45;;
20589;SDS011;10453;50.810;12.540;2023-05-25T15:05:25;12.20;;;6.22;;
20589;SDS011;10453;50.810;12.540;2023-05-25T15:09:43;11.85;;;5.50;;
20589;SDS011;10453;50.810;12.540;2023-05-25T15:14:01;11.23;;;5.23;;
20589;SDS011;10453;50.810;12.540;2023-05-25T15:18:18;10.82;;;4.97;;
20589;SDS011;10453;50.810;12.540;2023-05-25T15:22:36;13.77;;;5.67;;
20589;SDS011;10453;50.810;12.540;2023-05-25T15:26:53;11.60;;;5.32;;
20589;SDS011;10453;50.810;12.540;2023-05-25T15:31:10;9.83;;;4.77;;
20589;SDS011;10453;50.810;12.540;2023-05-25T15:35:28;11.77;;;4.85;;
20589;SDS011;10453;50.810;12.540;2023-05-25T15:39:48;13.32;;;5.03;;
20589;SDS011;10453;50.810;12.540;2023-05-25T15:44:06;8.40;;;4.77;;
20589;SDS011;10453;50.810;12.540;2023-05-25T15:48:28;13.90;;;5.25;;
20589;SDS011;10453;50.810;12.540;2023-05-25T15:52:45;11.43;;;5.55;;
20589;SDS011;10453;50.810;12.540;2023-05-25T16:01:21;14.35;;;6.20;;
20589;SDS011;10453;50.810;12.540;2023-05-25T16:05:39;10.35;;;4.95;;
20589;SDS011;10453;50.810;12.540;2023-05-25T16:09:57;10.95;;;5.50;;
20589;SDS011;10453;50.810;12.540;2023-05-25T16:14:18;12.65;;;5.75;;
20589;SDS011;10453;50.810;12.540;2023-05-25T16:18:35;10.30;;;5.70;;
20589;SDS011;10453;50.810;12.540;2023-05-25T16:22:53;13.02;;;5.88;;
20589;SDS011;10453;50.810;12.540;2023-05-25T16:27:10;12.32;;;5.75;;
20589;SDS011;10453;50.810;12.540;2023-05-25T16:31:28;14.73;;;6.22;;
20589;SDS011;10453;50.810;12.540;2023-05-25T16:35:45;16.73;;;7.05;;
20589;SDS011;10453;50.810;12.540;2023-05-25T16:40:03;13.20;;;6.32;;
20589;SDS011;10453;50.810;12.540;2023-05-25T16:44:21;13.90;;;5.72;;
20589;SDS011;10453;50.810;12.540;2023-05-25T16:48:39;16.33;;;5.90;;
20589;SDS011;10453;50.810;12.540;2023-05-25T16:52:58;11.55;;;5.97;;
20589;SDS011;10453;50.810;12.540;2023-05-25T16:57:16;15.40;;;6.05;;
20589;SDS011;10453;50.810;12.540;2023-05-25T17:01:36;16.35;;;6.15;;
20589;SDS011;10453;50.810;12.540;2023-05-25T17:05:53;8.98;;;5.60;;
20589;SDS011;10453;50.810;12.540;2023-05-25T17:10:10;13.45;;;5.80;;
20589;SDS011;10453;50.810;12.540;2023-05-25T17:14:28;10.48;;;5.13;;
20589;SDS011;10453;50.810;12.540;2023-05-25T17:18:45;10.73;;;5.32;;
20589;SDS011;10453;50.810;12.540;2023-05-25T17:23:03;11.75;;;5.13;;
20589;SDS011;10453;50.810;12.540;2023-05-25T17:27:22;13.02;;;5.43;;
20589;SDS011;10453;50.810;12.540;2023-05-25T17:31:39;11.15;;;5.18;;
20589;SDS011;10453;50.810;12.540;2023-05-25T17:35:57;10.80;;;5.00;;
20589;SDS011;10453;50.810;12.540;2023-05-25T17:40:16;11.85;;;5.40;;
20589;SDS011;10453;50.810;12.540;2023-05-25T17:44:33;13.00;;;4.78;;
20589;SDS011;10453;50.810;12.540;2023-05-25T17:48:55;11.73;;;5.38;;
20589;SDS011;10453;50.810;12.540;2023-05-25T17:53:13;9.45;;;4.65;;
20589;SDS011;10453;50.810;12.540;2023-05-25T17:57:31;10.45;;;5.18;;
20589;SDS011;10453;50.810;12.540;2023-05-25T18:01:48;11.52;;;5.32;;
20589;SDS011;10453;50.810;12.540;2023-05-25T18:06:09;12.68;;;5.88;;
20589;SDS011;10453;50.810;12.540;2023-05-25T18:10:31;13.48;;;5.47;;
20589;SDS011;10453;50.810;12.540;2023-05-25T18:14:55;12.65;;;6.00;;
20589;SDS011;10453;50.810;12.540;2023-05-25T18:19:12;15.50;;;5.88;;
20589;SDS011;10453;50.810;12.540;2023-05-25T18:23:32;12.85;;;6.53;;
20589;SDS011;10453;50.810;12.540;2023-05-25T18:27:50;11.00;;;6.20;;
20589;SDS011;10453;50.810;12.540;2023-05-25T18:32:08;10.93;;;6.10;;
20589;SDS011;10453;50.810;12.540;2023-05-25T18:36:26;14.00;;;6.80;;
20589;SDS011;10453;50.810;12.540;2023-05-25T18:40:44;14.55;;;5.85;;
20589;SDS011;10453;50.810;12.540;2023-05-25T18:45:03;12.20;;;5.85;;
20589;SDS011;10453;50.810;12.540;2023-05-25T18:49:21;15.38;;;5.93;;
20589;SDS011;10453;50.810;12.540;2023-05-25T18:53:40;10.03;;;6.00;;
20589;SDS011;10453;50.810;12.540;2023-05-25T18:57:57;13.82;;;5.63;;
20589;SDS011;10453;50.810;12.540;2023-05-25T19:02:16;12.80;;;6.55;;
20589;SDS011;10453;50.810;12.540;2023-05-25T19:06:33;11.13;;;6.22;;
20589;SDS011;10453;50.810;12.540;2023-05-25T19:10:52;12.65;;;6.50;;
20589;SDS011;10453;50.810;12.540;2023-05-25T19:15:10;13.98;;;6.68;;
20589;SDS011;10453;50.810;12.540;2023-05-25T19:19:29;13.25;;;6.68;;
20589;SDS011;10453;50.810;12.540;2023-05-25T19:23:46;15.98;;;6.40;;
20589;SDS011;10453;50.810;12.540;2023-05-25T19:28:04;12.53;;;6.30;;
20589;SDS011;10453;50.810;12.540;2023-05-25T19:32:23;11.48;;;6.63;;
20589;SDS011;10453;50.810;12.540;2023-05-25T19:36:40;15.43;;;8.18;;
20589;SDS011;10453;50.810;12.540;2023-05-25T19:41:00;14.05;;;8.15;;
20589;SDS011;10453;50.810;12.540;2023-05-25T19:45:18;17.15;;;7.15;;
20589;SDS011;10453;50.810;12.540;2023-05-25T19:49:35;12.18;;;7.18;;
20589;SDS011;10453;50.810;12.540;2023-05-25T19:53:53;17.63;;;7.83;;
20589;SDS011;10453;50.810;12.540;2023-05-25T19:58:11;15.77;;;8.53;;
20589;SDS011;10453;50.810;12.540;2023-05-25T20:02:29;13.63;;;8.10;;
20589;SDS011;10453;50.810;12.540;2023-05-25T20:06:46;17.38;;;8.38;;
20589;SDS011;10453;50.810;12.540;2023-05-25T20:11:04;11.52;;;7.82;;
20589;SDS011;10453;50.810;12.540;2023-05-25T20:15:21;16.20;;;9.23;;
20589;SDS011;10453;50.810;12.540;2023-05-25T20:19:39;16.05;;;9.13;;
20589;SDS011;10453;50.810;12.540;2023-05-25T20:23:57;19.60;;;9.40;;
20589;SDS011;10453;50.810;12.540;2023-05-25T20:28:17;14.57;;;8.77;;
20589;SDS011;10453;50.810;12.540;2023-05-25T20:32:38;12.75;;;8.32;;
20589;SDS011;10453;50.810;12.540;2023-05-25T20:37:02;14.82;;;8.05;;
20589;SDS011;10453;50.810;12.540;2023-05-25T20:47:11;14.48;;;8.80;;
20589;SDS011;10453;50.810;12.540;2023-05-25T20:51:28;16.88;;;8.55;;
20589;SDS011;10453;50.810;12.540;2023-05-25T20:55:46;14.07;;;8.95;;
20589;SDS011;10453;50.810;12.540;2023-05-25T21:00:04;19.25;;;9.15;;
20589;SDS011;10453;50.810;12.540;2023-05-25T21:04:25;17.40;;;8.73;;
20589;SDS011;10453;50.810;12.540;2023-05-25T21:08:45;17.55;;;8.95;;
20589;SDS011;10453;50.810;12.540;2023-05-25T21:13:02;16.60;;;8.93;;
20589;SDS011;10453;50.810;12.540;2023-05-25T21:17:20;14.23;;;8.65;;
20589;SDS011;10453;50.810;12.540;2023-05-25T21:21:37;15.68;;;9.18;;
20589;SDS011;10453;50.810;12.540;2023-05-25T21:25:55;11.73;;;8.93;;
20589;SDS011;10453;50.810;12.540;2023-05-25T21:30:12;14.68;;;9.10;;
20589;SDS011;10453;50.810;12.540;2023-05-25T21:34:30;16.20;;;9.18;;
20589;SDS011;10453;50.810;12.540;2023-05-25T21:38:47;17.15;;;8.60;;
20589;SDS011;10453;50.810;12.540;2023-05-25T21:43:05;18.08;;;9.55;;
20589;SDS011;10453;50.810;12.540;2023-05-25T21:47:24;18.08;;;9.48;;
20589;SDS011;10453;50.810;12.540;2023-05-25T21:51:42;21.55;;;8.68;;
20589;SDS011;10453;50.810;12.540;2023-05-25T21:55:59;16.65;;;9.68;;
20589;SDS011;10453;50.810;12.540;2023-05-25T22:00:17;19.75;;;9.90;;
20589;SDS011;10453;50.810;12.540;2023-05-25T22:04:34;16.73;;;10.18;;
20589;SDS011;10453;50.810;12.540;2023-05-25T22:08:52;16.02;;;9.88;;
20589;SDS011;10453;50.810;12.540;2023-05-25T22:13:09;15.18;;;9.65;;
20589;SDS011;10453;50.810;12.540;2023-05-25T22:17:27;12.73;;;9.50;;
20589;SDS011;10453;50.810;12.540;2023-05-25T22:21:44;14.73;;;9.77;;
20589;SDS011;10453;50.810;12.540;2023-05-25T22:26:02;14.88;;;9.77;;
20589;SDS011;10453;50.810;12.540;2023-05-25T22:34:38;16.23;;;10.45;;
20589;SDS011;10453;50.810;12.540;2023-05-25T22:38:55;16.67;;;9.75;;
20589;SDS011;10453;50.810;12.540;2023-05-25T22:43:12;19.63;;;11.07;;
20589;SDS011;10453;50.810;12.540;2023-05-25T22:47:30;19.90;;;11.52;;
20589;SDS011;10453;50.810;12.540;2023-05-25T22:51:47;18.42;;;10.38;;
20589;SDS011;10453;50.810;12.540;2023-05-25T22:56:10;18.38;;;11.13;;
20589;SDS011;10453;50.810;12.540;2023-05-25T23:00:27;15.38;;;10.88;;
20589;SDS011;10453;50.810;12.540;2023-05-25T23:04:45;18.73;;;11.05;;
20589;SDS011;10453;50.810;12.540;2023-05-25T23:09:02;16.10;;;10.80;;
20589;SDS011;10453;50.810;12.540;2023-05-25T23:13:20;19.13;;;11.33;;
20589;SDS011;10453;50.810;12.540;2023-05-25T23:17:40;15.15;;;11.32;;
20589;SDS011;10453;50.810;12.540;2023-05-25T23:21:57;20.83;;;11.88;;
20589;SDS011;10453;50.810;12.540;2023-05-25T23:26:14;18.05;;;11.65;;
20589;SDS011;10453;50.810;12.540;2023-05-25T23:30:32;22.27;;;11.48;;
20589;SDS011;10453;50.810;12.540;2023-05-25T23:34:49;17.27;;;10.90;;
20589;SDS011;10453;50.810;12.540;2023-05-25T23:39:06;17.35;;;10.98;;
20589;SDS011;10453;50.810;12.540;2023-05-25T23:43:24;21.70;;;11.88;;
20589;SDS011;10453;50.810;12.540;2023-05-25T23:47:42;18.53;;;11.10;;
20589;SDS011;10453;50.810;12.540;2023-05-25T23:52:00;16.58;;;11.25;;
20589;SDS011;10453;50.810;12.540;2023-05-25T23:56:17;19.17;;;11.93;;
